createdAt,value
2023-12-05T00:01:24.714Z,5.15
2023-12-05T00:03:53.131Z,5.60
2023-12-05T00:06:21.598Z,5.97
2023-12-05T00:08:50.002Z,4.85
2023-12-05T00:11:18.365Z,4.88
2023-12-05T00:13:46.739Z,5.00
2023-12-05T00:16:15.275Z,4.30
2023-12-05T00:18:46.334Z,5.68
2023-12-05T00:21:15.110Z,6.07
2023-12-05T00:23:43.392Z,4.03
2023-12-05T00:26:11.784Z,4.10
2023-12-05T00:28:40.182Z,4.10
2023-12-05T00:31:08.646Z,3.25
2023-12-05T00:33:37.123Z,5.75
2023-12-05T00:36:05.825Z,4.80
2023-12-05T00:38:34.429Z,5.25
2023-12-05T00:41:03.042Z,5.05
2023-12-05T00:43:31.448Z,5.40
2023-12-05T00:46:00.260Z,4.60
2023-12-05T00:48:30.491Z,4.65
2023-12-05T00:50:59.341Z,5.65
2023-12-05T00:53:27.665Z,5.03
2023-12-05T00:55:55.968Z,4.90
2023-12-05T00:58:24.276Z,6.38
2023-12-05T01:00:52.819Z,6.15
2023-12-05T01:03:22.530Z,7.57
2023-12-05T01:05:50.986Z,6.40
2023-12-05T01:08:19.398Z,5.15
2023-12-05T01:10:47.805Z,4.53
2023-12-05T01:13:16.207Z,4.75
2023-12-05T01:15:44.487Z,4.10
2023-12-05T01:18:13.762Z,4.57
2023-12-05T01:20:42.329Z,4.70
2023-12-05T01:23:11.267Z,3.70
2023-12-05T01:25:39.685Z,4.55
2023-12-05T01:28:08.014Z,6.32
2023-12-05T01:30:36.333Z,6.57
2023-12-05T01:33:04.916Z,6.13
2023-12-05T01:35:33.558Z,5.22
2023-12-05T01:38:02.022Z,5.68
2023-12-05T01:40:30.616Z,8.30
2023-12-05T01:42:58.960Z,6.20
2023-12-05T01:45:27.400Z,6.00
2023-12-05T01:47:57.959Z,4.97
2023-12-05T01:50:30.691Z,5.90
2023-12-05T01:53:06.713Z,9.05
2023-12-05T01:55:35.507Z,5.63
2023-12-05T01:58:04.004Z,6.65
2023-12-05T02:00:32.725Z,10.80
2023-12-05T02:03:01.555Z,6.00
2023-12-05T02:05:30.280Z,7.18
2023-12-05T02:07:59.593Z,7.57
2023-12-05T02:10:28.092Z,8.05
2023-12-05T02:12:56.623Z,6.82
2023-12-05T02:15:25.047Z,7.57
2023-12-05T02:18:25.189Z,7.50
2023-12-05T02:21:01.564Z,7.78
2023-12-05T02:23:38.629Z,9.93
2023-12-05T02:26:15.648Z,8.25
2023-12-05T02:28:44.492Z,6.53
2023-12-05T02:31:12.779Z,6.43
2023-12-05T02:33:41.939Z,7.18
2023-12-05T02:36:57.718Z,9.05
2023-12-05T02:39:43.220Z,8.27
2023-12-05T02:42:14.157Z,8.73
2023-12-05T02:44:46.941Z,8.60
2023-12-05T02:47:17.548Z,7.75
2023-12-05T02:49:46.088Z,8.60
2023-12-05T02:52:14.639Z,8.35
2023-12-05T02:54:42.995Z,10.07
2023-12-05T02:57:11.332Z,9.95
2023-12-05T02:59:39.596Z,7.43
2023-12-05T03:02:08.153Z,6.85
2023-12-05T03:04:36.675Z,7.55
2023-12-05T03:07:05.139Z,8.40
2023-12-05T03:09:33.424Z,9.45
2023-12-05T03:12:01.683Z,12.15
2023-12-05T03:14:30.045Z,10.05
2023-12-05T03:16:58.340Z,9.05
2023-12-05T03:19:27.041Z,9.23
2023-12-05T03:21:56.968Z,9.13
2023-12-05T03:24:25.555Z,10.18
2023-12-05T03:26:53.817Z,9.43
2023-12-05T03:29:22.068Z,8.93
2023-12-05T03:31:50.399Z,7.47
2023-12-05T03:34:18.810Z,10.07
2023-12-05T03:36:47.262Z,8.02
2023-12-05T03:39:16.508Z,11.40
2023-12-05T03:41:49.326Z,10.63
2023-12-05T03:44:17.676Z,10.07
2023-12-05T03:46:45.963Z,10.70
2023-12-05T03:49:14.919Z,9.88
2023-12-05T03:51:43.369Z,10.23
2023-12-05T03:54:11.898Z,9.50
2023-12-05T03:56:40.231Z,12.90
2023-12-05T03:59:08.530Z,10.10
2023-12-05T04:01:36.901Z,10.93
2023-12-05T04:04:05.344Z,8.98
2023-12-05T04:06:34.124Z,9.57
2023-12-05T04:09:06.837Z,9.18
2023-12-05T04:11:36.096Z,10.70
2023-12-05T04:14:04.432Z,10.15
2023-12-05T04:16:32.832Z,9.70
2023-12-05T04:19:01.216Z,9.07
2023-12-05T04:21:29.666Z,12.23
2023-12-05T04:23:57.969Z,10.05
2023-12-05T04:26:28.311Z,11.48
2023-12-05T04:28:57.226Z,8.85
2023-12-05T04:31:29.045Z,9.68
2023-12-05T04:33:58.421Z,10.75
2023-12-05T04:36:26.860Z,10.18
2023-12-05T04:38:55.402Z,11.55
2023-12-05T04:41:24.023Z,10.85
2023-12-05T04:43:52.307Z,11.85
2023-12-05T04:46:21.072Z,12.20
2023-12-05T04:48:49.565Z,14.13
2023-12-05T04:51:21.812Z,13.10
2023-12-05T04:53:50.146Z,15.70
2023-12-05T04:56:18.397Z,15.55
2023-12-05T04:58:46.819Z,13.52
2023-12-05T05:01:15.214Z,13.27
2023-12-05T05:03:43.690Z,17.67
2023-12-05T05:06:12.946Z,16.58
2023-12-05T05:08:41.304Z,17.70
2023-12-05T05:11:10.013Z,14.32
2023-12-05T05:13:45.865Z,16.35
2023-12-05T05:16:18.397Z,16.58
2023-12-05T05:18:46.764Z,17.92
2023-12-05T05:21:15.114Z,17.02
2023-12-05T05:23:43.447Z,16.40
2023-12-05T05:26:11.762Z,17.38
2023-12-05T05:28:40.055Z,15.77
2023-12-05T05:31:08.679Z,15.40
2023-12-05T05:33:37.037Z,15.05
2023-12-05T05:36:06.122Z,14.13
2023-12-05T05:38:35.045Z,16.58
2023-12-05T05:41:08.239Z,15.90
2023-12-05T05:43:37.107Z,14.97
2023-12-05T05:46:05.617Z,13.55
2023-12-05T05:48:34.655Z,12.82
2023-12-05T05:51:03.051Z,11.52
2023-12-05T05:53:31.299Z,13.52
2023-12-05T05:56:03.156Z,13.27
2023-12-05T05:58:31.552Z,11.20
2023-12-05T06:00:59.965Z,11.30
2023-12-05T06:03:30.261Z,11.43
2023-12-05T06:06:00.983Z,9.00
2023-12-05T06:08:29.462Z,9.80
2023-12-05T06:10:57.773Z,10.10
2023-12-05T06:13:26.395Z,11.40
2023-12-05T06:15:54.777Z,9.45
2023-12-05T06:18:23.636Z,10.93
2023-12-05T06:20:53.882Z,9.07
2023-12-05T06:23:22.128Z,9.57
2023-12-05T06:25:50.350Z,9.82
2023-12-05T06:28:18.702Z,10.80
2023-12-05T06:30:47.096Z,9.88
2023-12-05T06:33:15.758Z,11.82
2023-12-05T06:35:44.117Z,10.23
2023-12-05T06:38:12.497Z,9.57
2023-12-05T06:40:41.353Z,9.45
2023-12-05T06:43:10.724Z,9.23
2023-12-05T06:45:39.153Z,8.90
2023-12-05T06:48:07.561Z,8.55
2023-12-05T06:50:35.997Z,10.88
2023-12-05T06:53:04.465Z,10.32
2023-12-05T06:55:32.986Z,9.18
2023-12-05T06:58:01.384Z,10.10
2023-12-05T07:00:29.707Z,8.02
2023-12-05T07:02:58.230Z,11.98
2023-12-05T07:05:26.790Z,8.73
2023-12-05T07:07:55.223Z,8.18
2023-12-05T07:10:23.476Z,9.80
2023-12-05T07:12:51.901Z,8.57
2023-12-05T07:15:20.245Z,9.75
2023-12-05T07:17:49.161Z,8.80
2023-12-05T07:20:17.686Z,9.35
2023-12-05T07:22:46.260Z,8.82
2023-12-05T07:25:14.527Z,9.40
2023-12-05T07:27:42.799Z,10.77
2023-12-05T07:30:11.404Z,11.52
2023-12-05T07:32:39.872Z,9.55
2023-12-05T07:35:08.896Z,11.10
2023-12-05T07:37:37.228Z,11.57
2023-12-05T07:40:08.124Z,9.90
2023-12-05T07:42:36.526Z,9.65
2023-12-05T07:45:07.433Z,8.95
2023-12-05T07:47:36.428Z,7.80
2023-12-05T07:50:04.869Z,8.50
2023-12-05T07:52:33.163Z,9.38
2023-12-05T07:55:01.527Z,7.90
2023-12-05T07:57:29.830Z,9.90
2023-12-05T07:59:58.457Z,8.45
2023-12-05T08:02:26.741Z,9.30
2023-12-05T08:04:55.137Z,9.93
2023-12-05T08:07:23.486Z,9.82
2023-12-05T08:09:51.787Z,9.60
2023-12-05T08:12:20.103Z,10.25
2023-12-05T08:14:48.419Z,11.93
2023-12-05T08:17:16.715Z,10.55
2023-12-05T08:19:45.086Z,11.02
2023-12-05T08:22:13.349Z,8.60
2023-12-05T08:24:42.276Z,9.73
2023-12-05T08:27:10.766Z,9.35
2023-12-05T08:29:39.012Z,9.07
2023-12-05T08:32:07.408Z,8.15
2023-12-05T08:34:36.469Z,10.90
2023-12-05T08:37:04.916Z,8.77
2023-12-05T08:39:33.245Z,9.02
2023-12-05T08:42:01.612Z,10.43
2023-12-05T08:44:30.131Z,9.52
2023-12-05T08:46:58.412Z,8.30
2023-12-05T08:49:27.428Z,8.85
2023-12-05T08:51:55.824Z,10.27
2023-12-05T08:54:24.317Z,8.45
2023-12-05T08:56:54.148Z,8.30
2023-12-05T08:59:22.444Z,9.88
2023-12-05T09:01:50.880Z,8.88
2023-12-05T09:04:19.500Z,7.75
2023-12-05T09:06:48.056Z,9.40
2023-12-05T09:09:16.503Z,9.60
2023-12-05T09:11:46.419Z,9.52
2023-12-05T09:14:14.689Z,9.15
2023-12-05T09:16:43.019Z,10.48
2023-12-05T09:19:11.712Z,8.85
2023-12-05T09:21:41.167Z,8.30
2023-12-05T09:24:12.599Z,9.60
2023-12-05T09:26:40.829Z,9.35
2023-12-05T09:29:09.650Z,8.50
2023-12-05T09:31:37.935Z,10.48
2023-12-05T09:34:06.228Z,11.45
2023-12-05T09:36:34.562Z,9.65
2023-12-05T09:39:02.860Z,8.43
2023-12-05T09:41:31.716Z,10.23
2023-12-05T09:44:03.858Z,8.85
2023-12-05T09:46:44.614Z,8.80
2023-12-05T09:49:19.341Z,10.68
2023-12-05T09:51:50.477Z,8.60
2023-12-05T09:54:18.969Z,10.85
2023-12-05T09:56:47.581Z,9.20
2023-12-05T09:59:17.391Z,8.38
2023-12-05T10:01:47.181Z,10.35
2023-12-05T10:04:19.170Z,9.00
2023-12-05T10:06:50.493Z,9.95
2023-12-05T10:09:22.460Z,9.45
2023-12-05T10:11:51.940Z,9.07
2023-12-05T10:14:20.434Z,11.38
2023-12-05T10:16:51.142Z,10.10
2023-12-05T10:19:20.652Z,8.77
2023-12-05T10:21:52.782Z,8.95
2023-12-05T10:24:21.147Z,8.32
2023-12-05T10:26:49.491Z,7.53
2023-12-05T10:29:18.778Z,9.68
2023-12-05T10:31:47.096Z,7.53
2023-12-05T10:34:16.055Z,7.93
2023-12-05T10:37:02.413Z,8.48
2023-12-05T10:39:37.606Z,8.23
2023-12-05T10:42:06.160Z,7.05
2023-12-05T10:44:41.702Z,7.97
2023-12-05T10:47:12.997Z,8.80
2023-12-05T10:49:44.142Z,8.65
2023-12-05T10:52:15.994Z,7.82
2023-12-05T10:54:46.310Z,8.10
2023-12-05T10:57:14.610Z,7.93
2023-12-05T10:59:42.951Z,8.80
2023-12-05T11:02:16.381Z,6.07
2023-12-05T11:04:45.082Z,8.98
2023-12-05T11:07:13.493Z,7.45
2023-12-05T11:09:45.262Z,8.20
2023-12-05T11:12:16.125Z,6.97
2023-12-05T11:14:47.674Z,7.72
2023-12-05T11:17:29.552Z,7.50
2023-12-05T11:20:29.269Z,9.32
2023-12-05T11:23:09.192Z,6.38
2023-12-05T11:25:55.127Z,7.97
2023-12-05T11:29:00.377Z,8.23
2023-12-05T11:31:44.045Z,8.38
2023-12-05T11:34:24.312Z,8.27
2023-12-05T11:37:14.140Z,8.98
2023-12-05T11:39:42.835Z,6.88
2023-12-05T11:42:13.664Z,7.30
2023-12-05T11:44:42.827Z,7.00
2023-12-05T11:47:30.514Z,8.55
2023-12-05T11:50:00.686Z,10.20
2023-12-05T11:52:39.718Z,8.00
2023-12-05T11:55:10.644Z,11.52
2023-12-05T11:57:38.955Z,6.53
2023-12-05T12:00:11.757Z,12.07
2023-12-05T12:02:40.059Z,9.40
2023-12-05T12:05:11.582Z,9.13
2023-12-05T12:07:58.780Z,9.05
2023-12-05T12:10:30.637Z,7.20
2023-12-05T12:13:01.079Z,7.68
2023-12-05T12:15:38.903Z,6.20
2023-12-05T12:18:07.499Z,6.43
2023-12-05T12:20:36.086Z,6.88
2023-12-05T12:23:04.584Z,6.10
2023-12-05T12:25:33.165Z,6.97
2023-12-05T12:28:02.153Z,7.20
2023-12-05T12:30:36.685Z,8.82
2023-12-05T12:33:08.396Z,6.82
2023-12-05T12:35:37.072Z,9.30
2023-12-05T12:38:05.574Z,8.30
2023-12-05T12:40:35.735Z,6.95
2023-12-05T12:43:05.153Z,5.95
2023-12-05T12:45:33.764Z,7.15
2023-12-05T12:48:02.219Z,6.75
2023-12-05T12:50:30.867Z,8.48
2023-12-05T12:53:03.519Z,6.85
2023-12-05T12:55:31.903Z,7.68
2023-12-05T12:58:01.710Z,7.32
2023-12-05T13:00:34.160Z,10.98
2023-12-05T13:03:07.652Z,8.30
2023-12-05T13:05:43.511Z,7.75
2023-12-05T13:08:11.932Z,6.22
2023-12-05T13:10:40.872Z,7.40
2023-12-05T13:13:09.442Z,7.15
2023-12-05T13:15:38.699Z,7.70
2023-12-05T13:18:10.584Z,5.75
2023-12-05T13:20:56.609Z,6.18
2023-12-05T13:23:25.039Z,6.22
2023-12-05T13:25:53.493Z,6.28
2023-12-05T13:28:25.413Z,5.82
2023-12-05T13:30:53.794Z,6.20
2023-12-05T13:33:22.371Z,7.65
2023-12-05T13:35:51.721Z,6.15
2023-12-05T13:38:20.754Z,6.82
2023-12-05T13:40:49.168Z,6.47
2023-12-05T13:43:17.519Z,6.88
2023-12-05T13:45:46.301Z,6.95
2023-12-05T13:48:14.760Z,6.03
2023-12-05T13:50:43.240Z,6.05
2023-12-05T13:53:11.626Z,6.50
2023-12-05T13:55:39.906Z,7.60
2023-12-05T13:58:08.543Z,6.03
2023-12-05T14:00:36.933Z,6.40
2023-12-05T14:03:05.310Z,5.95
2023-12-05T14:05:33.820Z,5.88
2023-12-05T14:08:02.425Z,8.65
2023-12-05T14:10:30.699Z,7.28
2023-12-05T14:12:59.052Z,5.65
2023-12-05T14:15:27.421Z,7.22
2023-12-05T14:17:55.817Z,5.78
2023-12-05T14:20:24.963Z,7.75
2023-12-05T14:22:53.429Z,6.45
2023-12-05T14:25:21.774Z,6.65
2023-12-05T14:27:50.233Z,7.45
2023-12-05T14:30:18.591Z,9.07
2023-12-05T14:32:46.999Z,6.57
2023-12-05T14:35:15.641Z,9.32
2023-12-05T14:37:44.004Z,9.43
2023-12-05T14:40:12.580Z,8.15
2023-12-05T14:42:41.063Z,10.32
2023-12-05T14:45:10.504Z,10.20
2023-12-05T14:47:39.034Z,11.85
2023-12-05T14:50:07.642Z,10.60
2023-12-05T14:52:36.187Z,9.82
2023-12-05T14:55:04.756Z,8.98
2023-12-05T14:57:33.106Z,7.60
2023-12-05T15:00:01.452Z,9.20
2023-12-05T15:02:29.767Z,10.07
2023-12-05T15:04:58.143Z,11.20
2023-12-05T15:07:27.185Z,9.07
2023-12-05T15:09:55.562Z,11.98
2023-12-05T15:12:23.888Z,8.80
2023-12-05T15:14:52.253Z,9.88
2023-12-05T15:17:20.844Z,12.55
2023-12-05T15:20:17.982Z,14.98
2023-12-05T15:22:37.601Z,13.30
2023-12-05T15:25:06.383Z,13.18
2023-12-05T15:27:37.762Z,16.42
2023-12-05T15:30:06.704Z,15.63
2023-12-05T15:32:35.105Z,16.65
2023-12-05T15:35:03.497Z,19.00
2023-12-05T15:37:32.884Z,20.63
2023-12-05T15:40:01.171Z,22.08
2023-12-05T15:42:29.836Z,19.73
2023-12-05T15:44:59.195Z,20.00
2023-12-05T15:47:27.480Z,21.33
2023-12-05T15:49:56.227Z,23.00
2023-12-05T15:52:24.651Z,21.42
2023-12-05T15:54:53.057Z,19.50
2023-12-05T15:57:22.016Z,21.25
2023-12-05T15:59:50.859Z,22.33
2023-12-05T16:02:20.021Z,17.80
2023-12-05T16:04:49.229Z,21.95
2023-12-05T16:07:17.931Z,19.17
2023-12-05T16:09:46.406Z,16.67
2023-12-05T16:12:15.198Z,16.67
2023-12-05T16:14:43.720Z,16.23
2023-12-05T16:17:13.744Z,17.13
2023-12-05T16:19:42.338Z,15.63
2023-12-05T16:22:11.095Z,15.52
2023-12-05T16:24:39.497Z,15.80
2023-12-05T16:27:07.800Z,16.38
2023-12-05T16:29:36.436Z,14.70
2023-12-05T16:32:04.897Z,13.00
2023-12-05T16:34:33.397Z,14.45
2023-12-05T16:37:01.803Z,16.13
2023-12-05T16:39:30.191Z,13.52
2023-12-05T16:41:58.558Z,14.10
2023-12-05T16:44:27.436Z,13.98
2023-12-05T16:46:56.633Z,13.43
2023-12-05T16:49:25.896Z,13.90
2023-12-05T16:51:54.466Z,15.02
2023-12-05T16:54:22.885Z,17.27
2023-12-05T16:56:52.641Z,16.00
2023-12-05T16:59:28.004Z,17.70
2023-12-05T17:02:00.211Z,18.20
2023-12-05T17:04:28.655Z,18.20
2023-12-05T17:06:57.136Z,16.95
2023-12-05T17:09:25.630Z,15.90
2023-12-05T17:11:54.013Z,15.15
2023-12-05T17:14:22.304Z,17.08
2023-12-05T17:16:51.914Z,16.38
2023-12-05T17:19:20.406Z,14.82
2023-12-05T17:21:48.799Z,19.90
2023-12-05T17:24:17.231Z,19.20
2023-12-05T17:26:45.617Z,18.70
2023-12-05T17:29:13.946Z,18.88
2023-12-05T17:31:42.287Z,17.25
2023-12-05T17:34:10.688Z,19.02
2023-12-05T17:36:39.098Z,17.02
2023-12-05T17:39:07.470Z,15.45
2023-12-05T17:41:36.026Z,17.75
2023-12-05T17:44:04.498Z,13.55
2023-12-05T17:46:32.811Z,15.02
2023-12-05T17:49:02.015Z,14.30
2023-12-05T17:51:30.614Z,14.38
2023-12-05T17:53:58.943Z,18.42
2023-12-05T17:56:27.508Z,14.40
2023-12-05T17:58:55.912Z,14.90
2023-12-05T18:01:24.290Z,15.38
2023-12-05T18:03:52.752Z,17.63
2023-12-05T18:06:21.199Z,15.98
2023-12-05T18:08:49.872Z,17.83
2023-12-05T18:11:18.322Z,17.30
2023-12-05T18:13:46.870Z,17.27
2023-12-05T18:16:19.324Z,18.98
2023-12-05T18:18:52.003Z,18.27
2023-12-05T18:21:21.215Z,21.15
2023-12-05T18:23:51.479Z,19.83
2023-12-05T18:26:20.579Z,23.63
2023-12-05T18:28:49.730Z,18.45
2023-12-05T18:31:18.141Z,21.48
2023-12-05T18:33:46.688Z,24.48
2023-12-05T18:36:16.001Z,21.92
2023-12-05T18:38:44.371Z,21.85
2023-12-05T18:41:13.715Z,23.35
2023-12-05T18:43:42.928Z,22.65
2023-12-05T18:46:11.639Z,24.08
2023-12-05T18:48:40.116Z,24.80
2023-12-05T18:51:11.034Z,22.55
2023-12-05T18:53:40.199Z,24.10
2023-12-05T18:56:10.201Z,23.15
2023-12-05T18:58:38.602Z,23.42
2023-12-05T19:01:07.214Z,21.17
2023-12-05T19:03:35.932Z,20.77
2023-12-05T19:06:06.576Z,22.50
2023-12-05T19:08:35.011Z,18.70
2023-12-05T19:11:06.660Z,19.33
2023-12-05T19:13:38.394Z,18.95
2023-12-05T19:16:07.115Z,19.42
2023-12-05T19:18:35.587Z,19.95
2023-12-05T19:21:10.610Z,18.17
2023-12-05T19:23:39.193Z,18.75
2023-12-05T19:26:08.839Z,20.33
2023-12-05T19:28:45.992Z,17.88
2023-12-05T19:31:21.082Z,19.90
2023-12-05T19:33:51.463Z,18.60
2023-12-05T19:36:19.834Z,17.17
2023-12-05T19:38:48.418Z,16.33
2023-12-05T19:41:16.760Z,17.23
2023-12-05T19:43:45.290Z,19.23
2023-12-05T19:46:13.793Z,15.23
2023-12-05T19:48:45.130Z,17.92
2023-12-05T19:51:13.965Z,15.88
2023-12-05T19:53:42.322Z,15.32
2023-12-05T19:56:11.488Z,17.75
2023-12-05T19:58:41.167Z,14.50
2023-12-05T20:01:09.924Z,16.10
2023-12-05T20:03:38.409Z,15.32
2023-12-05T20:06:06.998Z,14.93
2023-12-05T20:08:35.371Z,14.93
2023-12-05T20:11:04.141Z,14.35
2023-12-05T20:13:33.317Z,15.13
2023-12-05T20:16:01.979Z,16.27
2023-12-05T20:18:30.673Z,15.88
2023-12-05T20:20:59.031Z,13.75
2023-12-05T20:23:29.039Z,16.48
2023-12-05T20:25:57.454Z,14.23
2023-12-05T20:28:25.683Z,14.27
2023-12-05T20:30:54.224Z,16.63
2023-12-05T20:33:22.654Z,12.60
2023-12-05T20:35:51.014Z,12.70
2023-12-05T20:38:19.310Z,15.25
2023-12-05T20:40:47.784Z,16.33
2023-12-05T20:43:16.336Z,13.63
2023-12-05T20:45:44.726Z,13.57
2023-12-05T20:48:15.192Z,12.32
2023-12-05T20:50:45.540Z,13.43
2023-12-05T20:53:14.032Z,13.52
2023-12-05T20:55:44.209Z,11.88
2023-12-05T20:58:12.651Z,11.15
2023-12-05T21:00:41.203Z,12.75
2023-12-05T21:03:10.018Z,16.33
2023-12-05T21:05:38.486Z,10.88
2023-12-05T21:08:14.315Z,13.35
2023-12-05T21:10:43.138Z,13.30
2023-12-05T21:13:13.095Z,12.15
2023-12-05T21:15:41.396Z,14.23
2023-12-05T21:18:10.763Z,10.75
2023-12-05T21:20:39.322Z,12.88
2023-12-05T21:23:07.977Z,12.10
2023-12-05T21:25:36.327Z,11.07
2023-12-05T21:28:06.834Z,11.23
2023-12-05T21:30:35.338Z,12.98
2023-12-05T21:33:04.458Z,13.50
2023-12-05T21:35:32.745Z,12.75
2023-12-05T21:38:01.084Z,10.18
2023-12-05T21:40:29.338Z,14.73
2023-12-05T21:42:57.758Z,13.35
2023-12-05T21:45:26.208Z,12.18
2023-12-05T21:47:55.054Z,13.93
2023-12-05T21:50:23.583Z,13.80
2023-12-05T21:52:52.243Z,18.95
2023-12-05T21:55:20.518Z,22.65
2023-12-05T21:57:49.005Z,20.13
2023-12-05T22:00:17.779Z,20.13
2023-12-05T22:02:46.565Z,21.17
2023-12-05T22:05:15.532Z,16.75
2023-12-05T22:07:43.819Z,14.88
2023-12-05T22:10:12.243Z,16.77
2023-12-05T22:12:40.692Z,17.98
2023-12-05T22:15:10.134Z,12.73
2023-12-05T22:17:39.047Z,12.68
2023-12-05T22:20:08.399Z,15.40
2023-12-05T22:22:36.810Z,17.00
2023-12-05T22:25:05.573Z,17.50
2023-12-05T22:27:33.947Z,17.92
2023-12-05T22:30:02.412Z,15.05
2023-12-05T22:32:30.716Z,12.32
2023-12-05T22:34:59.019Z,10.07
2023-12-05T22:37:27.427Z,11.50
2023-12-05T22:39:56.668Z,10.27
2023-12-05T22:42:25.041Z,11.60
2023-12-05T22:44:53.414Z,10.73
2023-12-05T22:47:22.343Z,9.70
2023-12-05T22:49:51.003Z,12.23
2023-12-05T22:52:19.455Z,11.13
2023-12-05T22:54:47.994Z,10.30
2023-12-05T22:57:16.356Z,11.05
2023-12-05T22:59:44.653Z,12.70
2023-12-05T23:02:13.321Z,14.85
2023-12-05T23:04:41.726Z,13.18
2023-12-05T23:07:10.896Z,12.93
2023-12-05T23:09:39.282Z,12.85
2023-12-05T23:12:07.944Z,13.38
2023-12-05T23:14:36.390Z,11.95
2023-12-05T23:17:07.345Z,11.65
2023-12-05T23:19:36.505Z,12.88
2023-12-05T23:22:05.006Z,12.68
2023-12-05T23:24:33.508Z,15.30
2023-12-05T23:27:01.798Z,13.85
2023-12-05T23:29:33.076Z,12.88
2023-12-05T23:32:01.454Z,13.60
2023-12-05T23:34:29.816Z,13.95
2023-12-05T23:36:58.547Z,12.85
2023-12-05T23:39:26.876Z,15.10
2023-12-05T23:41:55.164Z,13.43
2023-12-05T23:44:25.282Z,15.48
2023-12-05T23:46:53.960Z,13.57
2023-12-05T23:49:22.289Z,13.32
2023-12-05T23:51:50.767Z,14.55
2023-12-05T23:54:19.190Z,17.77
2023-12-05T23:56:47.692Z,15.43
2023-12-05T23:59:16.238Z,15.68
